createdAt,value
2023-03-03T00:00:32.088Z,36.97
2023-03-03T00:03:04.177Z,36.78
2023-03-03T00:05:34.101Z,44.25
2023-03-03T00:08:02.630Z,41.00
2023-03-03T00:10:31.093Z,35.88
2023-03-03T00:13:00.356Z,34.40
2023-03-03T00:15:32.343Z,39.67
2023-03-03T00:18:00.734Z,33.67
2023-03-03T00:20:34.579Z,35.40
2023-03-03T00:23:15.419Z,35.67
2023-03-03T00:25:45.957Z,34.28
2023-03-03T00:28:25.093Z,33.50
2023-03-03T00:30:56.535Z,38.70
2023-03-03T00:33:32.606Z,36.55
2023-03-03T00:36:21.848Z,36.25
2023-03-03T00:38:50.728Z,33.72
2023-03-03T00:41:23.682Z,32.83
2023-03-03T00:43:52.710Z,36.60
2023-03-03T00:46:24.507Z,33.85
2023-03-03T00:48:53.057Z,33.97
2023-03-03T00:51:28.614Z,33.28
2023-03-03T00:53:57.754Z,32.28
2023-03-03T00:56:27.696Z,33.28
2023-03-03T00:58:56.056Z,32.03
2023-03-03T01:01:25.798Z,34.63
2023-03-03T01:03:54.416Z,34.53
2023-03-03T01:06:22.787Z,36.15
2023-03-03T01:08:51.486Z,34.92
2023-03-03T01:11:24.168Z,34.72
2023-03-03T01:13:53.849Z,31.63
2023-03-03T01:16:22.694Z,34.00
2023-03-03T01:18:52.623Z,35.53
2023-03-03T01:21:20.986Z,32.88
2023-03-03T01:23:49.331Z,31.33
2023-03-03T01:26:17.881Z,32.13
2023-03-03T01:28:46.461Z,32.45
2023-03-03T01:31:14.845Z,33.35
2023-03-03T01:33:43.208Z,34.88
2023-03-03T01:36:12.869Z,34.58
2023-03-03T01:38:41.271Z,36.28
2023-03-03T01:41:09.574Z,37.63
2023-03-03T01:43:45.521Z,32.25
2023-03-03T01:46:41.008Z,38.42
2023-03-03T01:49:15.489Z,34.80
2023-03-03T01:54:21.138Z,35.40
2023-03-03T01:56:51.003Z,38.45
2023-03-03T01:59:22.520Z,33.90
2023-03-03T02:01:51.142Z,35.83
2023-03-03T02:04:21.993Z,35.60
2023-03-03T02:06:58.798Z,36.85
2023-03-03T02:09:35.127Z,37.83
2023-03-03T02:12:09.194Z,40.13
2023-03-03T02:14:37.527Z,37.60
2023-03-03T02:17:06.062Z,37.33
2023-03-03T02:19:41.151Z,39.22
2023-03-03T02:22:11.637Z,40.17
2023-03-03T02:24:44.281Z,38.33
2023-03-03T02:27:14.555Z,38.30
2023-03-03T02:29:42.865Z,36.58
2023-03-03T02:32:11.273Z,39.17
2023-03-03T02:34:48.664Z,45.15
2023-03-03T02:37:17.222Z,36.17
2023-03-03T02:39:46.148Z,39.15
2023-03-03T02:42:19.544Z,41.85
2023-03-03T02:44:47.901Z,47.58
2023-03-03T02:47:16.285Z,44.03
2023-03-03T02:49:45.199Z,38.90
2023-03-03T02:52:14.815Z,44.63
2023-03-03T02:54:43.243Z,45.35
2023-03-03T02:57:11.535Z,44.50
2023-03-03T02:59:41.268Z,43.88
2023-03-03T03:02:09.639Z,42.30
2023-03-03T03:04:38.283Z,42.22
2023-03-03T03:07:06.849Z,41.08
2023-03-03T03:09:35.157Z,44.30
2023-03-03T03:12:03.544Z,39.70
2023-03-03T03:14:32.047Z,43.40
2023-03-03T03:17:02.288Z,39.75
2023-03-03T03:19:30.628Z,42.67
2023-03-03T03:21:58.935Z,43.55
2023-03-03T03:24:27.309Z,43.83
2023-03-03T03:26:55.587Z,39.42
2023-03-03T03:29:23.888Z,44.50
2023-03-03T03:31:52.285Z,42.20
2023-03-03T03:34:22.020Z,45.90
2023-03-03T03:36:50.434Z,38.03
2023-03-03T03:39:18.748Z,38.42
2023-03-03T03:41:47.050Z,40.67
2023-03-03T03:44:16.236Z,40.03
2023-03-03T03:46:44.536Z,39.47
2023-03-03T03:49:12.889Z,44.03
2023-03-03T03:51:42.567Z,44.40
2023-03-03T03:54:10.958Z,42.40
2023-03-03T03:56:39.308Z,43.15
2023-03-03T03:59:08.122Z,42.40
2023-03-03T04:01:36.530Z,42.30
2023-03-03T04:04:05.670Z,47.70
2023-03-03T04:06:34.097Z,46.25
2023-03-03T04:09:04.416Z,42.28
2023-03-03T04:11:32.761Z,43.28
2023-03-03T04:14:01.503Z,44.47
2023-03-03T04:16:30.015Z,42.75
2023-03-03T04:18:58.416Z,46.40
2023-03-03T04:21:27.843Z,45.97
2023-03-03T04:23:56.155Z,42.65
2023-03-03T04:26:26.189Z,47.35
2023-03-03T04:28:54.533Z,40.67
2023-03-03T04:31:23.639Z,46.55
2023-03-03T04:33:52.069Z,41.85
2023-03-03T04:36:22.293Z,50.65
2023-03-03T04:38:50.747Z,48.42
2023-03-03T04:41:19.142Z,39.88
2023-03-03T04:43:48.897Z,45.17
2023-03-03T04:46:17.227Z,42.58
2023-03-03T04:48:45.605Z,42.83
2023-03-03T04:51:14.956Z,45.15
2023-03-03T04:53:43.521Z,41.92
2023-03-03T04:56:11.851Z,45.03
2023-03-03T04:58:40.192Z,50.17
2023-03-03T05:01:14.658Z,45.63
2023-03-03T05:03:43.365Z,45.78
2023-03-03T05:06:11.727Z,42.88
2023-03-03T05:08:40.221Z,40.45
2023-03-03T05:11:08.651Z,41.88
2023-03-03T05:13:37.131Z,51.00
2023-03-03T05:16:06.225Z,45.13
2023-03-03T05:18:35.968Z,44.67
2023-03-03T05:21:04.495Z,53.28
2023-03-03T05:23:32.831Z,56.80
2023-03-03T05:26:01.200Z,55.50
2023-03-03T05:28:29.571Z,53.33
2023-03-03T05:30:57.997Z,59.92
2023-03-03T05:33:26.632Z,54.55
2023-03-03T05:35:57.647Z,57.78
2023-03-03T05:38:26.419Z,58.72
2023-03-03T05:40:55.371Z,55.70
2023-03-03T05:43:23.685Z,59.42
2023-03-03T05:45:56.701Z,59.72
2023-03-03T05:48:25.105Z,55.35
2023-03-03T05:50:53.879Z,60.60
2023-03-03T05:53:24.025Z,53.47
2023-03-03T05:55:52.490Z,55.35
2023-03-03T05:58:20.914Z,55.83
2023-03-03T06:00:49.349Z,50.55
2023-03-03T06:03:18.066Z,57.83
2023-03-03T06:05:46.439Z,46.90
2023-03-03T06:08:14.800Z,53.28
2023-03-03T06:10:44.560Z,58.63
2023-03-03T06:13:13.016Z,60.97
2023-03-03T06:15:41.411Z,56.78
2023-03-03T06:18:09.978Z,57.83
2023-03-03T06:20:38.686Z,59.15
2023-03-03T06:23:07.305Z,61.40
2023-03-03T06:25:36.005Z,62.95
2023-03-03T06:28:05.831Z,61.40
2023-03-03T06:30:34.472Z,56.00
2023-03-03T06:33:03.052Z,51.80
2023-03-03T06:35:31.473Z,50.60
2023-03-03T06:37:59.846Z,52.65
2023-03-03T06:40:28.311Z,49.60
2023-03-03T06:42:56.802Z,55.22
2023-03-03T06:45:26.458Z,57.28
2023-03-03T06:47:54.838Z,47.97
2023-03-03T06:50:23.356Z,50.67
2023-03-03T06:53:03.022Z,48.60
2023-03-03T06:55:31.330Z,54.03
2023-03-03T06:58:00.951Z,56.63
2023-03-03T07:00:31.310Z,57.50
2023-03-03T07:03:02.969Z,53.15
2023-03-03T07:05:33.070Z,54.72
2023-03-03T07:08:01.447Z,51.67
2023-03-03T07:10:31.541Z,57.85
2023-03-03T07:13:12.088Z,61.28
2023-03-03T07:15:41.851Z,50.75
2023-03-03T07:18:28.025Z,53.17
2023-03-03T07:20:56.426Z,56.63
2023-03-03T07:23:27.550Z,58.55
2023-03-03T07:25:56.273Z,57.72
2023-03-03T07:28:26.511Z,54.47
2023-03-03T07:30:58.320Z,52.10
2023-03-03T07:33:28.785Z,56.47
2023-03-03T07:35:58.952Z,60.40
2023-03-03T07:38:33.623Z,59.70
2023-03-03T07:41:04.063Z,66.93
2023-03-03T07:43:36.759Z,63.90
2023-03-03T07:46:24.004Z,65.35
2023-03-03T07:48:54.195Z,61.72
2023-03-03T07:51:27.674Z,54.13
2023-03-03T07:54:14.163Z,64.67
2023-03-03T07:56:42.598Z,55.85
2023-03-03T07:59:22.350Z,57.67
2023-03-03T08:01:55.269Z,56.30
2023-03-03T08:04:29.387Z,62.35
2023-03-03T08:06:58.926Z,69.72
2023-03-03T08:09:57.936Z,57.55
2023-03-03T08:12:38.480Z,58.58
2023-03-03T08:15:22.679Z,62.28
2023-03-03T08:17:54.882Z,55.75
2023-03-03T08:20:44.560Z,60.85
2023-03-03T08:23:13.571Z,60.42
2023-03-03T08:25:42.786Z,60.28
2023-03-03T08:28:12.022Z,69.07
2023-03-03T08:30:40.524Z,62.10
2023-03-03T08:33:10.409Z,72.25
2023-03-03T08:35:39.192Z,66.28
2023-03-03T08:38:08.554Z,64.85
2023-03-03T08:40:36.905Z,58.95
2023-03-03T08:43:05.592Z,59.85
2023-03-03T08:45:34.272Z,55.90
2023-03-03T08:48:05.851Z,50.67
2023-03-03T08:50:36.026Z,43.85
2023-03-03T08:53:04.468Z,53.17
2023-03-03T08:55:32.862Z,50.03
2023-03-03T08:58:01.594Z,52.03
2023-03-03T09:00:30.001Z,48.03
2023-03-03T09:02:58.910Z,50.05
2023-03-03T09:05:28.138Z,46.92
2023-03-03T09:07:58.023Z,49.50
2023-03-03T09:10:30.862Z,49.50
2023-03-03T09:13:01.924Z,54.60
2023-03-03T09:15:31.890Z,46.05
2023-03-03T09:18:11.111Z,53.75
2023-03-03T09:20:41.561Z,51.95
2023-03-03T09:23:35.102Z,58.38
2023-03-03T09:26:28.484Z,61.13
2023-03-03T09:29:01.492Z,65.97
2023-03-03T09:31:39.660Z,59.22
2023-03-03T09:34:20.396Z,57.60
2023-03-03T09:36:49.428Z,58.72
2023-03-03T09:39:21.470Z,52.20
2023-03-03T09:42:23.180Z,62.53
2023-03-03T09:45:10.875Z,52.75
2023-03-03T09:47:53.959Z,43.22
2023-03-03T09:50:30.937Z,44.38
2023-03-03T09:53:14.562Z,44.17
2023-03-03T09:55:51.772Z,47.28
2023-03-03T09:58:45.802Z,51.38
2023-03-03T10:01:44.891Z,49.97
2023-03-03T10:04:26.133Z,49.85
2023-03-03T10:07:05.913Z,52.13
2023-03-03T10:09:49.600Z,53.00
2023-03-03T10:12:26.548Z,49.77
2023-03-03T10:15:26.188Z,52.42
2023-03-03T10:17:59.870Z,48.45
2023-03-03T10:20:50.545Z,49.22
2023-03-03T10:23:23.354Z,38.50
2023-03-03T10:26:07.236Z,47.75
2023-03-03T10:29:25.473Z,53.27
2023-03-03T10:32:13.852Z,46.38
2023-03-03T10:34:55.829Z,48.47
2023-03-03T10:37:34.181Z,43.90
2023-03-03T10:40:21.094Z,42.25
2023-03-03T10:43:04.433Z,40.95
2023-03-03T10:46:08.228Z,44.25
2023-03-03T10:49:19.602Z,41.70
2023-03-03T10:52:01.201Z,33.28
2023-03-03T10:54:44.852Z,34.45
2023-03-03T10:57:23.128Z,38.03
2023-03-03T11:00:04.525Z,39.45
2023-03-03T11:02:42.874Z,39.55
2023-03-03T11:05:33.176Z,43.88
2023-03-03T11:08:08.500Z,46.83
2023-03-03T11:10:52.241Z,52.78
2023-03-03T11:13:26.155Z,48.67
2023-03-03T11:16:14.746Z,49.28
2023-03-03T11:19:02.402Z,51.80
2023-03-03T11:21:36.250Z,44.38
2023-03-03T11:24:20.668Z,39.72
2023-03-03T11:27:05.937Z,52.38
2023-03-03T11:29:50.610Z,50.83
2023-03-03T11:32:28.360Z,52.40
2023-03-03T11:35:22.302Z,50.08
2023-03-03T11:38:01.037Z,63.30
2023-03-03T11:40:37.496Z,63.55
2023-03-03T11:43:13.131Z,59.88
2023-03-03T11:45:46.347Z,51.17
2023-03-03T11:48:22.970Z,52.10
2023-03-03T11:51:00.050Z,54.85
2023-03-03T11:53:39.188Z,58.25
2023-03-03T11:56:18.304Z,54.72
2023-03-03T11:58:53.705Z,52.83
2023-03-03T12:01:27.734Z,49.78
2023-03-03T12:04:02.858Z,48.95
2023-03-03T12:06:42.644Z,57.20
2023-03-03T12:09:21.520Z,61.53
2023-03-03T12:11:54.437Z,56.28
2023-03-03T12:14:37.333Z,55.30
2023-03-03T12:17:16.046Z,57.85
2023-03-03T12:19:56.402Z,50.67
2023-03-03T12:22:34.311Z,53.28
2023-03-03T12:25:16.516Z,48.95
2023-03-03T12:27:51.643Z,44.92
2023-03-03T12:30:30.233Z,43.35
2023-03-03T12:33:22.299Z,43.72
2023-03-03T12:36:00.063Z,36.47
2023-03-03T12:38:42.013Z,40.45
2023-03-03T12:41:16.484Z,37.65
2023-03-03T12:43:57.242Z,37.42
2023-03-03T12:46:38.592Z,42.90
2023-03-03T12:49:07.009Z,37.13
2023-03-03T12:51:47.435Z,36.28
2023-03-03T12:54:28.638Z,34.75
2023-03-03T12:57:01.936Z,36.33
2023-03-03T12:59:44.260Z,45.20
2023-03-03T13:02:42.637Z,40.80
2023-03-03T13:05:31.225Z,42.03
2023-03-03T13:08:13.556Z,37.47
2023-03-03T13:10:47.653Z,44.38
2023-03-03T13:13:25.415Z,40.40
2023-03-03T13:16:06.171Z,36.15
2023-03-03T13:18:49.684Z,49.97
2023-03-03T13:21:26.970Z,46.17
2023-03-03T13:24:17.453Z,41.08
2023-03-03T13:26:56.674Z,44.53
2023-03-03T13:29:30.301Z,42.10
2023-03-03T13:32:04.756Z,54.17
2023-03-03T13:34:43.537Z,63.15
2023-03-03T13:37:20.842Z,59.67
2023-03-03T13:39:59.656Z,55.00
2023-03-03T13:42:38.371Z,56.10
2023-03-03T13:45:18.271Z,55.78
2023-03-03T13:47:54.170Z,52.40
2023-03-03T13:50:27.474Z,55.83
2023-03-03T13:53:29.647Z,43.53
2023-03-03T13:56:14.814Z,41.47
2023-03-03T13:58:51.492Z,37.47
2023-03-03T14:01:25.761Z,60.15
2023-03-03T14:06:30.452Z,41.17
2023-03-03T14:09:22.504Z,51.47
2023-03-03T14:11:57.635Z,53.92
2023-03-03T14:14:41.728Z,49.50
2023-03-03T14:17:18.180Z,55.10
2023-03-03T14:19:49.703Z,41.38
2023-03-03T14:22:23.977Z,39.92
2023-03-03T14:27:27.687Z,32.88
2023-03-03T14:29:57.401Z,35.05
2023-03-03T14:32:43.259Z,32.03
2023-03-03T14:35:22.949Z,34.08
2023-03-03T14:37:52.168Z,32.95
2023-03-03T14:40:28.936Z,34.80
2023-03-03T14:43:00.126Z,33.58
2023-03-03T14:45:36.245Z,35.50
2023-03-03T14:48:16.109Z,34.47
2023-03-03T14:50:49.104Z,32.58
2023-03-03T14:53:24.009Z,38.70
2023-03-03T14:55:54.045Z,42.72
2023-03-03T14:58:31.464Z,41.70
2023-03-03T15:01:32.935Z,44.97
2023-03-03T15:04:04.900Z,30.23
2023-03-03T15:06:48.856Z,44.75
2023-03-03T15:09:29.720Z,34.22
2023-03-03T15:11:59.844Z,64.32
2023-03-03T15:14:33.339Z,40.88
2023-03-03T15:17:24.963Z,42.00
2023-03-03T15:20:23.866Z,38.42
2023-03-03T15:22:57.328Z,37.45
2023-03-03T15:25:43.326Z,42.28
2023-03-03T15:28:29.546Z,33.45
2023-03-03T15:34:03.698Z,30.95
2023-03-03T15:36:40.338Z,34.42
2023-03-03T15:39:23.534Z,40.38
2023-03-03T15:42:04.155Z,47.10
2023-03-03T15:44:53.501Z,36.25
2023-03-03T15:47:35.660Z,30.23
2023-03-03T15:53:02.718Z,33.38
2023-03-03T15:55:46.274Z,31.65
2023-03-03T15:58:46.395Z,29.95
2023-03-03T16:01:24.544Z,31.38
2023-03-03T16:03:56.972Z,27.83
2023-03-03T16:06:37.260Z,33.15
2023-03-03T16:09:20.545Z,30.65
2023-03-03T16:11:56.028Z,41.92
2023-03-03T16:14:48.871Z,43.20
2023-03-03T16:17:28.087Z,49.15
2023-03-03T16:20:09.147Z,41.63
2023-03-03T16:22:50.577Z,31.60
2023-03-03T16:25:37.668Z,26.08
2023-03-03T16:28:11.772Z,29.55
2023-03-03T16:30:49.864Z,29.40
2023-03-03T16:33:23.563Z,32.08
2023-03-03T16:36:03.486Z,40.58
2023-03-03T16:38:38.171Z,32.15
2023-03-03T16:41:14.391Z,30.38
2023-03-03T16:44:03.568Z,47.67
2023-03-03T16:46:34.982Z,51.35
2023-03-03T16:49:12.988Z,39.65
2023-03-03T16:51:52.623Z,32.22
2023-03-03T16:54:35.758Z,34.60
2023-03-03T16:57:14.392Z,41.85
2023-03-03T16:59:55.703Z,39.70
2023-03-03T17:02:50.499Z,34.10
2023-03-03T17:05:29.029Z,33.97
2023-03-03T17:08:19.317Z,28.08
2023-03-03T17:10:52.273Z,33.80
2023-03-03T17:13:39.672Z,26.30
2023-03-03T17:16:15.736Z,33.92
2023-03-03T17:18:56.323Z,33.85
2023-03-03T17:21:39.328Z,33.53
2023-03-03T17:24:19.092Z,33.97
2023-03-03T17:26:59.566Z,33.13
2023-03-03T17:29:40.471Z,32.33
2023-03-03T17:32:23.368Z,39.72
2023-03-03T17:35:10.633Z,33.90
2023-03-03T17:37:44.954Z,35.78
2023-03-03T17:40:23.382Z,48.45
2023-03-03T17:42:59.241Z,53.78
2023-03-03T17:45:35.551Z,52.40
2023-03-03T17:48:33.855Z,46.78
2023-03-03T17:51:14.580Z,44.78
2023-03-03T17:54:03.099Z,60.40
2023-03-03T17:56:36.237Z,47.80
2023-03-03T17:59:31.042Z,85.70
2023-03-03T18:02:24.740Z,94.85
2023-03-03T18:05:12.835Z,47.25
2023-03-03T18:08:02.206Z,40.83
2023-03-03T18:10:53.985Z,43.47
2023-03-03T18:13:51.603Z,39.63
2023-03-03T18:16:30.231Z,61.58
2023-03-03T18:19:23.559Z,94.68
2023-03-03T18:21:58.784Z,86.85
2023-03-03T18:24:34.560Z,104.13
2023-03-03T18:27:31.179Z,83.75
2023-03-03T18:30:25.075Z,38.90
2023-03-03T18:33:33.000Z,41.13
2023-03-03T18:36:16.549Z,63.58
2023-03-03T18:38:49.305Z,88.00
2023-03-03T18:41:24.494Z,63.10
2023-03-03T18:43:58.787Z,45.47
2023-03-03T18:46:47.643Z,53.75
2023-03-03T18:49:16.809Z,75.28
2023-03-03T18:52:14.814Z,67.65
2023-03-03T18:54:43.894Z,64.32
2023-03-03T18:57:18.418Z,50.92
2023-03-03T18:59:58.348Z,45.83
2023-03-03T19:02:37.871Z,37.97
2023-03-03T19:05:17.990Z,42.75
2023-03-03T19:07:59.299Z,40.22
2023-03-03T19:10:50.847Z,49.97
2023-03-03T19:13:50.013Z,74.38
2023-03-03T19:16:36.645Z,89.03
2023-03-03T19:19:16.931Z,61.55
2023-03-03T19:21:51.088Z,43.63
2023-03-03T19:24:35.066Z,44.85
2023-03-03T19:27:25.131Z,50.30
2023-03-03T19:30:15.321Z,65.22
2023-03-03T19:33:09.983Z,59.35
2023-03-03T19:35:47.090Z,65.45
2023-03-03T19:38:27.866Z,73.53
2023-03-03T19:41:08.983Z,71.28
2023-03-03T19:43:48.845Z,68.57
2023-03-03T19:46:38.719Z,56.58
2023-03-03T19:49:17.659Z,59.30
2023-03-03T19:51:54.509Z,51.58
2023-03-03T19:54:39.660Z,53.08
2023-03-03T19:57:17.971Z,43.47
2023-03-03T19:59:53.356Z,52.97
2023-03-03T20:02:38.139Z,59.53
2023-03-03T20:05:22.090Z,51.53
2023-03-03T20:07:57.068Z,72.10
2023-03-03T20:10:36.466Z,48.58
2023-03-03T20:13:20.186Z,60.10
2023-03-03T20:15:57.736Z,46.05
2023-03-03T20:18:58.990Z,36.15
2023-03-03T20:21:34.000Z,37.25
2023-03-03T20:24:24.926Z,35.70
2023-03-03T20:26:58.885Z,30.95
2023-03-03T20:29:45.507Z,34.35
2023-03-03T20:32:27.645Z,32.65
2023-03-03T20:35:08.326Z,29.73
2023-03-03T20:37:48.970Z,32.17
2023-03-03T20:40:27.285Z,28.60
2023-03-03T20:43:06.408Z,28.77
2023-03-03T20:45:48.581Z,29.70
2023-03-03T20:48:32.594Z,30.20
2023-03-03T20:51:08.290Z,28.35
2023-03-03T20:53:46.648Z,31.25
2023-03-03T20:56:20.073Z,37.90
2023-03-03T20:59:03.290Z,34.50
2023-03-03T21:01:39.965Z,37.70
2023-03-03T21:04:27.217Z,39.75
2023-03-03T21:06:56.300Z,31.65
2023-03-03T21:09:30.401Z,31.83
2023-03-03T21:11:59.921Z,31.50
2023-03-03T21:14:30.113Z,26.60
2023-03-03T21:17:02.699Z,26.77
2023-03-03T21:19:32.598Z,30.65
2023-03-03T21:22:02.876Z,31.88
2023-03-03T21:24:51.011Z,30.60
2023-03-03T21:27:27.845Z,30.70
2023-03-03T21:30:10.038Z,32.17
2023-03-03T21:32:44.605Z,31.52
2023-03-03T21:35:14.729Z,30.38
2023-03-03T21:37:46.292Z,29.27
2023-03-03T21:40:16.588Z,28.15
2023-03-03T21:42:45.280Z,28.60
2023-03-03T21:45:16.468Z,31.50
2023-03-03T21:47:46.170Z,31.77
2023-03-03T21:50:15.283Z,26.00
2023-03-03T21:52:44.093Z,29.45
2023-03-03T21:55:12.524Z,26.42
2023-03-03T21:57:40.978Z,32.50
2023-03-03T22:00:10.934Z,28.45
2023-03-03T22:02:39.401Z,27.95
2023-03-03T22:05:09.630Z,29.23
2023-03-03T22:07:37.935Z,28.33
2023-03-03T22:10:09.805Z,27.63
2023-03-03T22:12:38.245Z,28.23
2023-03-03T22:15:07.627Z,28.88
2023-03-03T22:17:35.935Z,32.10
2023-03-03T22:20:04.872Z,24.92
2023-03-03T22:22:34.557Z,28.48
2023-03-03T22:25:03.305Z,30.27
2023-03-03T22:27:31.589Z,27.00
2023-03-03T22:29:59.894Z,25.48
2023-03-03T22:32:28.408Z,26.95
2023-03-03T22:34:56.971Z,23.20
2023-03-03T22:37:25.316Z,25.60
2023-03-03T22:39:55.097Z,24.98
2023-03-03T22:42:24.997Z,26.13
2023-03-03T22:44:53.423Z,33.35
2023-03-03T22:47:21.728Z,30.38
2023-03-03T22:49:50.018Z,39.78
2023-03-03T22:52:18.381Z,36.70
2023-03-03T22:54:46.720Z,32.05
2023-03-03T22:57:16.498Z,39.33
2023-03-03T22:59:44.819Z,41.70
2023-03-03T23:02:13.170Z,41.17
2023-03-03T23:04:41.873Z,43.42
2023-03-03T23:07:10.232Z,37.55
2023-03-03T23:09:38.589Z,46.30
2023-03-03T23:12:07.429Z,38.65
2023-03-03T23:14:37.097Z,43.70
2023-03-03T23:17:05.442Z,52.30
2023-03-03T23:19:33.796Z,38.78
2023-03-03T23:22:02.104Z,39.60
2023-03-03T23:24:33.049Z,54.90
2023-03-03T23:27:01.537Z,45.22
2023-03-03T23:29:30.487Z,46.60
2023-03-03T23:32:00.243Z,58.72
2023-03-03T23:34:29.406Z,73.45
2023-03-03T23:36:57.797Z,46.67
2023-03-03T23:39:26.223Z,53.88
2023-03-03T23:41:54.561Z,45.35
2023-03-03T23:44:22.878Z,63.08
2023-03-03T23:46:51.238Z,70.38
2023-03-03T23:49:20.949Z,45.30
2023-03-03T23:51:49.255Z,51.97
2023-03-03T23:54:17.807Z,54.22
2023-03-03T23:56:46.133Z,52.90
2023-03-03T23:59:14.546Z,45.03
